Terminal Aerodrome Forecast
Issued by NWS Billings, MT

Home | Current Version | Previous Version | Text Only | Print | Product List | Glossary Off
Versions: 1 2 3 4 5 6 7 8 9 10 11 12 13 14 15 16 17 18 19 20 21 22 23 24 25 26 27 28 29 30 31 32 33 34 35

060
FTUS45 KBYZ 110536
TAFMLS
TAF
KMLS 110536Z 1106/1206 07004KT P6SM BKN150
     FM111000 VRB05KT P6SM VCFG SCT005 BKN080
     FM111500 28011KT P6SM SCT005 BKN050
     FM111700 30015G24KT P6SM SCT020 SCT120
     FM120000 30010KT P6SM BKN050=

USA.gov is the U.S. government's official web portal to all federal, state and local government web resources and services.